createdAt,value
2019-01-23T00:04:30.990Z,98123.32
2019-01-23T00:09:49.562Z,98116.50
2019-01-23T00:15:08.608Z,98116.02
2019-01-23T00:20:27.216Z,98116.02
2019-01-23T00:25:45.836Z,98108.23
2019-01-23T00:31:05.826Z,98105.45
2019-01-23T00:36:24.373Z,98099.94
2019-01-23T00:41:42.927Z,98096.22
2019-01-23T00:47:01.855Z,98089.22
2019-01-23T00:52:20.442Z,98078.53
2019-01-23T00:57:39.033Z,98067.66
2019-01-23T01:02:57.854Z,98064.87
2019-01-23T01:08:16.506Z,98058.86
2019-01-23T01:13:35.679Z,98061.27
2019-01-23T01:18:54.433Z,98058.72
2019-01-23T01:24:13.135Z,98060.17
2019-01-23T01:29:31.984Z,98063.39
2019-01-23T01:34:50.641Z,98057.23
2019-01-23T01:40:12.507Z,98045.55
2019-01-23T01:45:31.302Z,98049.92
2019-01-23T01:50:49.913Z,98033.05
2019-01-23T01:56:08.554Z,98031.55
2019-01-23T02:01:27.174Z,98025.40
2019-01-23T02:06:45.794Z,98033.19
2019-01-23T02:12:04.536Z,98012.11
2019-01-23T02:17:23.171Z,98022.02
2019-01-23T02:22:41.814Z,98009.18
2019-01-23T02:28:00.796Z,98011.29
2019-01-23T02:33:19.424Z,98006.09
2019-01-23T02:38:38.339Z,97998.94
2019-01-23T02:43:56.905Z,98004.92
2019-01-23T02:49:15.387Z,97995.37
2019-01-23T02:54:34.045Z,98000.84
2019-01-23T02:59:52.722Z,97992.59
2019-01-23T03:05:14.171Z,97981.72
2019-01-23T03:10:32.824Z,97977.02
2019-01-23T03:15:51.309Z,97974.59
2019-01-23T03:21:10.154Z,97970.70
2019-01-23T03:26:28.781Z,97963.19
2019-01-23T03:31:47.610Z,97961.90
2019-01-23T03:37:06.240Z,97950.67
2019-01-23T03:42:24.816Z,97945.34
2019-01-23T03:47:43.535Z,97952.50
2019-01-23T03:53:02.226Z,97948.27
2019-01-23T03:58:20.856Z,97944.66
2019-01-23T04:03:39.653Z,97944.84
2019-01-23T04:08:58.316Z,97940.28
2019-01-23T04:14:17.086Z,97946.15
2019-01-23T04:19:35.648Z,97947.59
2019-01-23T04:24:54.122Z,97937.05
2019-01-23T04:30:18.189Z,97933.80
2019-01-23T04:35:36.684Z,97928.45
2019-01-23T04:40:55.208Z,97926.20
2019-01-23T04:46:13.854Z,97923.56
2019-01-23T04:51:36.829Z,97926.48
2019-01-23T04:56:55.421Z,97919.36
2019-01-23T05:02:14.066Z,97916.13
2019-01-23T05:07:32.751Z,97910.95
2019-01-23T05:12:51.893Z,97909.17
2019-01-23T05:18:10.489Z,97909.88
2019-01-23T05:23:29.058Z,97900.80
2019-01-23T05:28:47.528Z,97911.34
2019-01-23T05:34:08.191Z,97907.47
2019-01-23T05:39:26.742Z,97912.50
2019-01-23T05:44:45.292Z,97908.61
2019-01-23T05:50:06.065Z,97909.78
2019-01-23T05:55:24.623Z,97905.86
2019-01-23T06:00:43.273Z,97908.81
2019-01-23T06:06:01.894Z,97911.05
2019-01-23T06:11:20.646Z,97908.75
2019-01-23T06:16:39.438Z,97909.09
2019-01-23T06:21:58.055Z,97912.00
2019-01-23T06:27:16.651Z,97911.83
2019-01-23T06:32:36.909Z,97916.55
2019-01-23T06:37:55.562Z,97912.50
2019-01-23T06:43:14.150Z,97916.03
2019-01-23T06:48:32.823Z,97917.19
2019-01-23T06:53:51.389Z,97913.80
2019-01-23T06:59:10.117Z,97905.55
2019-01-23T07:04:28.726Z,97919.70
2019-01-23T07:09:47.629Z,97913.89
2019-01-23T07:15:09.235Z,97924.77
2019-01-23T07:20:28.046Z,97931.59
2019-01-23T07:25:46.859Z,97931.12
2019-01-23T07:31:05.477Z,97936.01
2019-01-23T07:36:24.096Z,97941.69
2019-01-23T07:41:43.113Z,97940.39
2019-01-23T07:47:01.765Z,97947.36
2019-01-23T07:52:20.515Z,97954.99
2019-01-23T07:57:39.146Z,97947.70
2019-01-23T08:02:57.772Z,97957.11
2019-01-23T08:08:16.409Z,97961.00
2019-01-23T08:13:35.080Z,97966.33
2019-01-23T08:18:54.237Z,97966.29
2019-01-23T08:24:12.796Z,97963.20
2019-01-23T08:29:31.417Z,97958.98
2019-01-23T08:34:50.107Z,97956.06
2019-01-23T08:40:11.922Z,97961.42
2019-01-23T08:45:30.569Z,97957.63
2019-01-23T08:50:49.188Z,97957.63
2019-01-23T08:56:07.963Z,97961.97
2019-01-23T09:01:26.567Z,97965.06
2019-01-23T09:06:45.196Z,97966.97
2019-01-23T09:12:06.266Z,97978.58
2019-01-23T09:17:24.894Z,97965.73
2019-01-23T09:22:43.587Z,97979.59
2019-01-23T09:28:02.208Z,97985.00
2019-01-23T09:33:39.004Z,97980.22
2019-01-23T09:39:09.282Z,97993.33
2019-01-23T09:44:36.803Z,97995.58
2019-01-23T09:50:19.098Z,97999.48
2019-01-23T09:55:37.757Z,97999.69
2019-01-23T10:00:59.822Z,98004.38
2019-01-23T10:06:17.942Z,98009.50
2019-01-23T10:11:36.558Z,98006.03
2019-01-23T10:16:55.128Z,98016.14
2019-01-23T10:22:14.155Z,98016.46
2019-01-23T10:27:35.649Z,98017.26
2019-01-23T10:32:54.221Z,98020.05
2019-01-23T10:38:12.766Z,98031.58
2019-01-23T10:43:31.406Z,98025.47
2019-01-23T10:48:50.011Z,98020.46
2019-01-23T10:54:09.925Z,98031.75
2019-01-23T10:59:28.631Z,98030.47
2019-01-23T11:04:47.293Z,98034.31
2019-01-23T11:10:09.115Z,98035.25
2019-01-23T11:15:31.910Z,98028.12
2019-01-23T11:20:50.553Z,98032.64
2019-01-23T11:26:09.212Z,98029.30
2019-01-23T11:31:27.855Z,98041.17
2019-01-23T11:36:51.877Z,98030.45
2019-01-23T11:42:10.399Z,98029.75
2019-01-23T11:47:29.038Z,98033.83
2019-01-23T11:52:48.665Z,98039.95
2019-01-23T11:58:07.292Z,98039.67
2019-01-23T12:03:25.926Z,98035.08
2019-01-23T12:08:44.625Z,98034.17
2019-01-23T12:14:04.762Z,98041.29
2019-01-23T12:19:26.439Z,98035.84
2019-01-23T12:24:45.341Z,98039.10
2019-01-23T12:30:06.399Z,98039.40
2019-01-23T12:35:25.040Z,98029.38
2019-01-23T12:40:43.670Z,98030.12
2019-01-23T12:46:02.269Z,98034.73
2019-01-23T12:51:20.943Z,98041.94
2019-01-23T12:56:39.533Z,98034.11
2019-01-23T13:01:58.201Z,98034.88
2019-01-23T13:07:16.923Z,98037.44
2019-01-23T13:12:35.526Z,98040.38
2019-01-23T13:17:54.529Z,98048.13
2019-01-23T13:23:19.703Z,98055.87
2019-01-23T13:28:35.724Z,98052.52
2019-01-23T13:33:54.394Z,98055.47
2019-01-23T13:39:13.054Z,98055.47
2019-01-23T13:44:31.801Z,98056.77
2019-01-23T13:49:50.614Z,98064.74
2019-01-23T13:55:25.815Z,98063.36
2019-01-23T14:00:44.506Z,98071.86
2019-01-23T14:06:03.142Z,98074.17
2019-01-23T14:11:21.819Z,98086.02
2019-01-23T14:16:40.728Z,98092.94
2019-01-23T14:21:59.368Z,98094.47
2019-01-23T14:27:17.942Z,98111.77
2019-01-23T14:32:36.625Z,98111.26
2019-01-23T14:38:00.577Z,98120.88
2019-01-23T14:43:15.779Z,98121.11
2019-01-23T14:48:34.409Z,98127.87
2019-01-23T14:53:53.198Z,98125.61
2019-01-23T14:59:12.128Z,98135.25
2019-01-23T15:04:30.691Z,98135.25
2019-01-23T15:09:51.023Z,98151.38
2019-01-23T15:15:11.676Z,98164.73
2019-01-23T15:20:33.234Z,98164.16
2019-01-23T15:25:52.160Z,98164.02
2019-01-23T15:31:11.006Z,98168.91
2019-01-23T15:36:29.550Z,98175.75
2019-01-23T15:41:48.461Z,98172.03
2019-01-23T15:47:07.090Z,98185.51
2019-01-23T15:52:25.965Z,98195.44
2019-01-23T15:57:44.587Z,98207.00
2019-01-23T16:03:03.221Z,98210.56
2019-01-23T16:08:21.876Z,98227.95
2019-01-23T16:13:51.411Z,98231.36
2019-01-23T16:19:10.372Z,98230.73
2019-01-23T16:24:29.489Z,98245.36
2019-01-23T16:29:48.261Z,98255.59
2019-01-23T16:35:10.080Z,98259.00
2019-01-23T16:40:28.719Z,98266.79
2019-01-23T16:45:47.538Z,98268.25
2019-01-23T16:51:07.456Z,98279.78
2019-01-23T16:56:26.143Z,98289.53
2019-01-23T17:01:44.728Z,98299.41
2019-01-23T17:07:03.879Z,98300.71
2019-01-23T17:12:22.430Z,98310.77
2019-01-23T17:17:41.213Z,98308.83
2019-01-23T17:22:59.838Z,98310.45
2019-01-23T17:28:30.617Z,98309.47
2019-01-23T17:33:49.317Z,98315.95
2019-01-23T17:39:14.668Z,98322.48
2019-01-23T17:44:33.333Z,98335.16
2019-01-23T17:50:07.664Z,98339.81
2019-01-23T17:55:15.299Z,98349.55
2019-01-23T18:00:35.577Z,98361.55
2019-01-23T18:05:54.243Z,98373.70
2019-01-23T18:11:12.912Z,98383.72
2019-01-23T18:16:33.271Z,98390.70
2019-01-23T18:21:53.508Z,98395.38
2019-01-23T18:27:12.368Z,98396.68
2019-01-23T18:32:30.926Z,98404.45
2019-01-23T18:37:58.558Z,98408.48
2019-01-23T18:43:31.936Z,98412.38
2019-01-23T18:49:13.186Z,98414.64
2019-01-23T18:54:31.957Z,98425.52
2019-01-23T18:59:50.649Z,98430.55
2019-01-23T19:05:11.322Z,98437.06
2019-01-23T19:10:30.105Z,98436.98
2019-01-23T19:15:48.782Z,98447.87
2019-01-23T19:21:09.933Z,98447.64
2019-01-23T19:26:47.896Z,98445.38
2019-01-23T19:32:06.783Z,98452.83
2019-01-23T19:37:31.634Z,98452.31
2019-01-23T19:42:51.572Z,98459.45
2019-01-23T19:48:10.353Z,98461.53
2019-01-23T19:53:31.686Z,98470.45
2019-01-23T19:58:58.912Z,98464.75
2019-01-23T20:04:22.953Z,98470.79
2019-01-23T20:09:41.757Z,98472.50
2019-01-23T20:15:00.490Z,98482.43
2019-01-23T20:20:29.928Z,98489.33
2019-01-23T20:25:50.226Z,98488.88
2019-01-23T20:31:09.003Z,98494.34
2019-01-23T20:36:27.786Z,98503.72
2019-01-23T20:41:49.043Z,98505.57
2019-01-23T20:47:09.626Z,98514.61
2019-01-23T20:52:28.358Z,98514.87
2019-01-23T21:03:26.890Z,98519.55
2019-01-23T21:08:52.633Z,98532.64
2019-01-23T21:14:11.406Z,98522.09
2019-01-23T21:19:32.343Z,98529.44
2019-01-23T21:24:51.411Z,98524.52
2019-01-23T21:30:18.305Z,98540.63
2019-01-23T21:35:38.132Z,98540.63
2019-01-23T21:40:56.689Z,98547.55
2019-01-23T21:46:16.895Z,98548.62
2019-01-23T21:51:35.568Z,98561.12
2019-01-23T21:56:54.213Z,98559.34
2019-01-23T22:02:12.857Z,98561.47
2019-01-23T22:07:31.382Z,98566.91
2019-01-23T22:12:50.227Z,98575.77
2019-01-23T22:18:09.247Z,98579.36
2019-01-23T22:23:28.072Z,98583.06
2019-01-23T22:28:46.816Z,98587.95
2019-01-23T22:34:05.737Z,98587.95
2019-01-23T22:39:24.431Z,98600.09
2019-01-23T22:44:43.960Z,98605.63
2019-01-23T22:50:02.742Z,98607.22
2019-01-23T22:55:22.114Z,98617.42
2019-01-23T23:00:47.983Z,98622.43
2019-01-23T23:06:07.420Z,98624.16
2019-01-23T23:11:26.046Z,98634.77
2019-01-23T23:16:44.822Z,98643.70
2019-01-23T23:22:04.659Z,98650.06
2019-01-23T23:27:23.330Z,98656.38
2019-01-23T23:32:41.968Z,98666.86
2019-01-23T23:38:00.635Z,98667.44
2019-01-23T23:43:19.399Z,98675.69
2019-01-23T23:48:38.046Z,98677.11
2019-01-23T23:53:56.674Z,98686.19
2019-01-23T23:59:15.338Z,98692.43
